Bethel Regional Airport (0B1)
Bethel, ME
Field Elevation: 674
Lat: 44°25.51N  Long: 70°48.60W
CTAF/Unicom Freq: 122.9000
   
     For Weather-by-Phone, call 207-512-2516
Weather Advisories
2017-08-16   17:23 Z
Altimeter 29.96" Hg
Wind 320° @ 12 KT
Gusts 19 KT
Visibility 10 SM
Ceiling CLR
Temperature 22° C (72° F)
Dewpoint 7° C (45° F)
Relative Humidity 38%
Density Altitude --
Condensation Altitude 8,200 feet
Wind and Runways
Indicated Runway = 32
Headwind = 12 kt
Crosswind = 0 kt
History
 
 
 
More Info
All DigiWx sites map
 
NOAA Forecast
 
Airport IQ 5010
(KBXM) Brunswick, ME
(39N) Princeton, NJ
 
about DigiWx
 
FAA Disclaimer: The data displayed is for advisory purposes only and is not to be used for flight planning or operations. For official data, please call 207-512-2516 to hear the current automated AWOS voice message.
  METAR 0B1 161723Z AUTO 32012G19KT 10 SM CLR 22/07 A2996